Time;durP1;ratioP1;P1;durP2;ratioP2;P2;SDS_P1;SDS_P2;PMS_P1;PMS_P2;Temp;Humidity;BMP_temperature;BMP_pressure;BME280_temperature;BME280_humidity;BME280_pressure;Samples;Min_cycle;Max_cycle;Signal;HPM_P1;HPM_P2
2021/01/16 00:00:27;;;;;;;44.05;24.38;;;38.60;2176.00;;;;;;4839819;29;20406;-75
2021/01/16 00:02:53;;;;;;;44.00;23.73;;;38.60;2176.00;;;;;;4840933;29;20022;-75
2021/01/16 00:05:20;;;;;;;49.97;28.17;;;38.70;2176.00;;;;;;4839680;29;20057;-76
2021/01/16 00:07:47;;;;;;;37.33;24.05;;;38.70;2176.00;;;;;;4840965;29;20056;-75
2021/01/16 00:10:16;;;;;;;41.75;23.17;;;38.70;2201.60;;;;;;4839676;29;20030;-76
2021/01/16 00:12:49;;;;;;;46.45;25.65;;;38.70;2176.00;;;;;;4839897;29;20029;-77
2021/01/16 00:15:15;;;;;;;38.50;23.50;;;38.70;2176.00;;;;;;4839014;29;20038;-75
2021/01/16 00:17:41;;;;;;;49.75;26.23;;;38.70;2176.00;;;;;;4841260;29;20030;-75
2021/01/16 00:20:07;;;;;;;49.70;24.45;;;38.70;2176.00;;;;;;4839599;29;20582;-74
2021/01/16 00:22:33;;;;;;;46.03;26.50;;;38.80;2176.00;;;;;;4840891;29;20125;-75
2021/01/16 00:24:58;;;;;;;43.53;26.38;;;38.80;2176.00;;;;;;4839496;29;20109;-75
2021/01/16 00:27:26;;;;;;;48.65;26.60;;;38.80;2176.00;;;;;;4840984;29;20086;-75
2021/01/16 00:29:52;;;;;;;46.25;25.58;;;38.90;2201.60;;;;;;4840538;29;20022;-74
2021/01/16 00:32:18;;;;;;;48.50;27.05;;;38.80;2201.60;;;;;;4840504;29;20592;-74
2021/01/16 00:34:44;;;;;;;45.83;28.48;;;38.90;2201.60;;;;;;4839674;29;20045;-75
2021/01/16 00:37:09;;;;;;;41.30;24.17;;;38.80;2201.60;;;;;;4840744;29;20041;-74
2021/01/16 00:39:35;;;;;;;49.40;28.15;;;38.90;2176.00;;;;;;4840185;29;20525;-75
2021/01/16 00:42:01;;;;;;;51.22;26.38;;;38.90;2201.60;;;;;;4839150;29;20041;-74
2021/01/16 00:44:26;;;;;;;42.88;24.13;;;38.90;2176.00;;;;;;4840714;29;20030;-74
2021/01/16 00:46:52;;;;;;;46.90;25.60;;;38.90;2201.60;;;;;;4839391;29;20112;-74
2021/01/16 00:49:18;;;;;;;43.28;24.27;;;38.90;2201.60;;;;;;4840664;29;20033;-74
2021/01/16 00:51:46;;;;;;;59.63;27.17;;;39.00;2201.60;;;;;;4843407;29;20119;-74
2021/01/16 00:54:12;;;;;;;54.10;27.00;;;39.00;2201.60;;;;;;4846899;29;20135;-75
2021/01/16 00:56:39;;;;;;;41.00;24.50;;;39.10;2201.60;;;;;;4845987;29;20466;-74
2021/01/16 00:59:04;;;;;;;45.63;27.17;;;39.10;2201.60;;;;;;4846499;29;20102;-75
2021/01/16 01:01:30;;;;;;;45.42;27.15;;;39.10;2201.60;;;;;;4842815;29;20042;-75
2021/01/16 01:03:56;;;;;;;46.20;27.05;;;39.10;2201.60;;;;;;4842023;29;20046;-74
2021/01/16 01:06:21;;;;;;;44.40;26.05;;;39.10;2201.60;;;;;;4844278;29;20033;-74
2021/01/16 01:08:47;;;;;;;47.03;27.02;;;39.10;2201.60;;;;;;4843737;29;20085;-74
2021/01/16 01:11:13;;;;;;;49.92;29.13;;;39.10;2201.60;;;;;;4843147;29;20026;-74
2021/01/16 01:13:38;;;;;;;51.95;31.40;;;39.10;2201.60;;;;;;4843229;29;20113;-74
2021/01/16 01:16:05;;;;;;;56.03;29.23;;;39.10;2201.60;;;;;;4842569;29;20038;-74
2021/01/16 01:18:30;;;;;;;59.70;31.45;;;39.10;2201.60;;;;;;4843254;29;20026;-74
2021/01/16 01:20:56;;;;;;;56.05;29.73;;;39.20;2201.60;;;;;;4843568;29;20033;-75
2021/01/16 01:23:22;;;;;;;55.38;30.75;;;39.20;2201.60;;;;;;4841596;29;20038;-75
2021/01/16 01:25:47;;;;;;;49.65;28.35;;;39.20;2201.60;;;;;;4842889;29;20037;-75
2021/01/16 01:28:13;;;;;;;55.17;30.17;;;39.20;2201.60;;;;;;4843670;29;20022;-75
2021/01/16 01:30:39;;;;;;;53.50;30.27;;;39.20;2201.60;;;;;;4841682;29;20057;-74
2021/01/16 01:33:14;;;;;;;49.30;27.10;;;39.20;2201.60;;;;;;4841574;29;20041;-74
2021/01/16 01:35:40;;;;;;;52.10;28.58;;;39.20;2201.60;;;;;;4842723;29;20026;-74
2021/01/16 01:38:05;;;;;;;56.08;30.42;;;39.30;2201.60;;;;;;4842192;29;20553;-74
2021/01/16 01:40:31;;;;;;;49.88;27.60;;;39.30;2201.60;;;;;;4842912;29;20063;-75
2021/01/16 01:42:57;;;;;;;44.88;27.15;;;39.30;2201.60;;;;;;4843306;29;20037;-75
2021/01/16 01:45:24;;;;;;;50.45;28.10;;;39.30;2201.60;;;;;;4842540;29;20053;-74
2021/01/16 01:47:50;;;;;;;54.42;27.85;;;39.30;2201.60;;;;;;4841601;29;20034;-75
2021/01/16 01:50:18;;;;;;;55.50;29.13;;;64.00;2201.60;;;;;;4843266;29;20026;-75
2021/01/16 01:52:44;;;;;;;51.78;29.90;;;64.10;2201.60;;;;;;4841786;29;20068;-75
2021/01/16 01:55:12;;;;;;;51.30;27.88;;;64.10;2201.60;;;;;;4843332;29;20030;-75
2021/01/16 01:57:42;;;;;;;50.50;27.80;;;64.10;2201.60;;;;;;4842797;29;20042;-75
2021/01/16 02:00:10;;;;;;;50.10;26.67;;;64.10;2201.60;;;;;;4842842;29;20038;-75
2021/01/16 02:02:38;;;;;;;55.53;29.88;;;64.10;2201.60;;;;;;4840766;29;20394;-75
2021/01/16 02:05:09;;;;;;;54.38;28.42;;;64.10;2201.60;;;;;;4841710;29;20050;-75
2021/01/16 02:07:38;;;;;;;51.85;27.23;;;64.10;2201.60;;;;;;4843079;29;20020;-75
2021/01/16 02:10:10;;;;;;;50.92;27.58;;;64.10;2201.60;;;;;;4842533;29;20049;-74
2021/01/16 02:12:38;;;;;;;46.72;27.10;;;64.10;2201.60;;;;;;4841718;29;20557;-74
2021/01/16 02:15:24;;;;;;;49.38;26.33;;;64.10;2201.60;;;;;;4842368;29;20026;-75
2021/01/16 02:18:02;;;;;;;56.00;26.90;;;64.10;2201.60;;;;;;4841196;29;20067;-75
2021/01/16 02:20:34;;;;;;;45.53;25.05;;;64.10;2201.60;;;;;;4841663;29;20521;-74
2021/01/16 02:23:11;;;;;;;55.78;29.85;;;64.10;2201.60;;;;;;4841031;29;20026;-74
2021/01/16 02:25:41;;;;;;;45.92;25.92;;;64.00;2201.60;;;;;;4842411;29;20063;-75
2021/01/16 02:28:17;;;;;;;46.65;25.08;;;64.00;2201.60;;;;;;4842718;29;20025;-75
2021/01/16 02:30:42;;;;;;;;;;;64.00;2201.60;;;;;;4842642;29;20022;-74
2021/01/16 02:33:11;;;;;;;50.60;26.80;;;64.00;2201.60;;;;;;4841465;29;19919;-75
2021/01/16 02:35:47;;;;;;;44.28;25.08;;;64.10;2201.60;;;;;;4840802;29;20038;-75
2021/01/16 02:38:30;;;;;;;56.65;29.17;;;64.00;2201.60;;;;;;4840836;29;20143;-75
2021/01/16 02:41:10;;;;;;;51.67;28.50;;;64.10;2201.60;;;;;;4842798;29;20162;-75
2021/01/16 02:43:49;;;;;;;50.55;27.58;;;64.00;2201.60;;;;;;4840489;29;20117;-75
2021/01/16 02:46:38;;;;;;;53.65;28.95;;;64.10;2201.60;;;;;;4840863;29;20030;-75
2021/01/16 02:49:06;;;;;;;48.80;27.92;;;64.10;2201.60;;;;;;4841075;29;20022;-75
2021/01/16 02:52:05;;;;;;;50.95;28.80;;;64.00;2201.60;;;;;;4841999;29;20057;-75
2021/01/16 02:54:37;;;;;;;45.65;26.73;;;64.10;2201.60;;;;;;4840463;29;20030;-75
2021/01/16 02:57:04;;;;;;;50.08;29.80;;;64.00;2201.60;;;;;;4841871;29;20521;-75
2021/01/16 02:59:38;;;;;;;48.38;29.00;;;64.00;2201.60;;;;;;4840399;29;20086;-75
2021/01/16 03:02:09;;;;;;;47.90;28.70;;;64.00;2201.60;;;;;;4840307;29;20094;-75
2021/01/16 03:04:35;;;;;;;48.95;27.25;;;64.00;2201.60;;;;;;4840655;29;20456;-75
2021/01/16 03:07:03;;;;;;;54.78;29.00;;;64.00;2201.60;;;;;;4841221;29;20034;-75
2021/01/16 03:09:30;;;;;;;49.33;27.77;;;64.00;2201.60;;;;;;4842273;29;20034;-77
2021/01/16 03:11:57;;;;;;;53.28;27.52;;;64.00;2201.60;;;;;;4841414;29;20029;-75
2021/01/16 03:14:27;;;;;;;51.92;30.30;;;39.30;2201.60;;;;;;4839782;29;20038;-75
2021/01/16 03:17:12;;;;;;;45.75;25.30;;;39.30;2201.60;;;;;;4840758;29;20018;-75
2021/01/16 03:19:48;;;;;;;40.55;24.08;;;39.30;2201.60;;;;;;4841264;29;20030;-75
2021/01/16 03:22:19;;;;;;;54.60;30.10;;;39.30;2176.00;;;;;;4839888;29;20045;-75
2021/01/16 03:24:46;;;;;;;48.10;28.83;;;39.30;2176.00;;;;;;4840408;29;20086;-77
2021/01/16 03:27:12;;;;;;;54.35;26.83;;;39.30;2176.00;;;;;;4841228;29;20022;-76
2021/01/16 03:29:38;;;;;;;51.50;25.08;;;39.20;2176.00;;;;;;4840408;29;20578;-75
2021/01/16 03:32:05;;;;;;;50.08;25.90;;;39.20;2176.00;;;;;;4839905;29;20380;-75
2021/01/16 03:34:31;;;;;;;40.75;25.13;;;39.20;2150.40;;;;;;4841504;29;20262;-75
2021/01/16 03:36:56;;;;;;;42.72;24.27;;;39.20;2150.40;;;;;;4839901;29;20482;-76
2021/01/16 03:39:22;;;;;;;42.08;24.90;;;39.30;2150.40;;;;;;4841721;29;20487;-76
2021/01/16 03:41:48;;;;;;;38.67;24.52;;;39.30;2124.80;;;;;;4840559;29;20049;-76
2021/01/16 03:44:13;;;;;;;43.42;24.25;;;39.30;2150.40;;;;;;4840740;29;20072;-76
2021/01/16 03:46:39;;;;;;;44.88;24.90;;;39.30;2150.40;;;;;;4841268;29;20470;-75
2021/01/16 03:49:04;;;;;;;49.58;26.35;;;39.30;2150.40;;;;;;4840233;29;20026;-76
2021/01/16 03:51:30;;;;;;;45.25;24.27;;;64.00;2150.40;;;;;;4841573;29;20030;-75
2021/01/16 03:53:56;;;;;;;44.03;25.00;;;64.00;2150.40;;;;;;4840241;29;20414;-75
2021/01/16 03:56:21;;;;;;;45.28;25.58;;;64.10;2150.40;;;;;;4840611;29;20038;-75
2021/01/16 03:58:47;;;;;;;49.58;24.50;;;64.10;2150.40;;;;;;4839409;29;20040;-75
2021/01/16 04:01:13;;;;;;;44.00;24.65;;;64.10;2150.40;;;;;;4841273;29;20113;-75
2021/01/16 04:03:38;;;;;;;43.30;24.20;;;64.10;2150.40;;;;;;4840483;29;20037;-75
2021/01/16 04:06:04;;;;;;;47.05;25.90;;;64.10;2150.40;;;;;;4839739;29;20030;-75
2021/01/16 04:08:30;;;;;;;42.08;23.85;;;64.10;2150.40;;;;;;4840931;29;20030;-75
2021/01/16 04:10:55;;;;;;;52.00;27.38;;;64.10;2150.40;;;;;;4839715;29;20038;-75
2021/01/16 04:13:21;;;;;;;45.30;24.90;;;64.10;2150.40;;;;;;4839578;29;20112;-75
2021/01/16 04:15:47;;;;;;;52.60;26.70;;;64.10;2150.40;;;;;;4841183;29;20033;-76
2021/01/16 04:18:13;;;;;;;47.03;24.50;;;64.20;2150.40;;;;;;4839432;29;20030;-74
2021/01/16 04:20:38;;;;;;;46.78;24.90;;;64.20;2150.40;;;;;;4840456;29;20030;-75
2021/01/16 04:23:04;;;;;;;51.20;27.92;;;64.20;2176.00;;;;;;4840879;29;20081;-77
2021/01/16 04:25:30;;;;;;;51.05;25.92;;;64.20;2150.40;;;;;;4843469;29;20497;-75
2021/01/16 04:27:55;;;;;;;54.10;29.33;;;64.20;2176.00;;;;;;4843365;29;20029;-75
2021/01/16 04:30:21;;;;;;;43.53;25.48;;;64.20;2150.40;;;;;;4843037;29;20144;-75
2021/01/16 04:32:50;;;;;;;50.08;28.42;;;64.20;2176.00;;;;;;4844797;29;20026;-74
2021/01/16 04:35:16;;;;;;;51.92;28.15;;;64.20;2176.00;;;;;;4844286;29;20041;-74
2021/01/16 04:37:45;;;;;;;48.00;26.52;;;64.20;2176.00;;;;;;4844717;29;20030;-74
2021/01/16 04:40:12;;;;;;;45.67;25.65;;;64.20;2176.00;;;;;;4843788;29;20540;-74
2021/01/16 04:42:44;;;;;;;46.88;26.25;;;64.30;2176.00;;;;;;4844133;29;20049;-74
2021/01/16 04:45:16;;;;;;;49.00;28.02;;;64.30;2176.00;;;;;;4843269;29;20025;-74
2021/01/16 04:47:44;;;;;;;46.72;26.35;;;64.30;2176.00;;;;;;4843981;29;20026;-74
2021/01/16 04:50:15;;;;;;;48.95;26.05;;;64.30;2176.00;;;;;;4842879;29;20374;-74
2021/01/16 04:52:42;;;;;;;50.13;29.25;;;64.30;2176.00;;;;;;4843960;29;20034;-74
2021/01/16 04:55:14;;;;;;;48.80;27.83;;;64.30;2176.00;;;;;;4844322;29;20427;-74
2021/01/16 04:57:42;;;;;;;48.97;28.63;;;64.30;2176.00;;;;;;4844403;29;20037;-74
2021/01/16 05:00:10;;;;;;;52.03;27.77;;;64.40;2176.00;;;;;;4842440;29;20383;-75
2021/01/16 05:02:42;;;;;;;45.80;25.67;;;64.40;2201.60;;;;;;4842832;29;20026;-74
2021/01/16 05:05:11;;;;;;;51.55;28.58;;;64.40;2201.60;;;;;;4839993;29;20534;-74
2021/01/16 05:07:38;;;;;;;51.33;26.33;;;64.40;2201.60;;;;;;4843919;29;20105;-75
2021/01/16 05:10:08;;;;;;;48.70;25.92;;;64.40;2201.60;;;;;;4843663;29;20030;-75
2021/01/16 05:12:58;;;;;;;43.35;25.73;;;64.40;2150.40;;;;;;4842310;29;20029;-75
2021/01/16 05:15:30;;;;;;;41.28;25.13;;;64.40;2176.00;;;;;;4844142;29;20030;-74
2021/01/16 05:18:18;;;;;;;43.35;24.45;;;64.40;2150.40;;;;;;4842099;29;20434;-75
2021/01/16 05:20:44;;;;;;;51.40;25.15;;;64.40;2176.00;;;;;;4843348;29;20040;-74
2021/01/16 05:23:17;;;;;;;46.75;26.42;;;64.40;2124.80;;;;;;4842585;29;20034;-74
2021/01/16 05:25:48;;;;;;;45.60;25.30;;;64.40;2150.40;;;;;;4843241;29;20550;-74
2021/01/16 05:28:20;;;;;;;46.55;24.45;;;64.40;2176.00;;;;;;4843848;29;20026;-74
2021/01/16 05:31:00;;;;;;;46.15;24.10;;;64.40;2176.00;;;;;;4842390;29;20109;-74
2021/01/16 05:33:28;;;;;;;44.50;24.75;;;64.50;2176.00;;;;;;4841326;29;20029;-74
2021/01/16 05:35:59;;;;;;;44.72;24.50;;;64.50;2176.00;;;;;;4843622;29;20064;-74
2021/01/16 05:38:37;;;;;;;46.03;26.45;;;64.50;2150.40;;;;;;4841870;29;20386;-73
2021/01/16 05:41:08;;;;;;;50.17;24.38;;;64.60;2150.40;;;;;;4841541;29;20129;-74
2021/01/16 05:43:35;;;;;;;42.70;23.08;;;64.50;2176.00;;;;;;4842177;29;20040;-74
2021/01/16 05:46:04;;;;;;;44.83;24.58;;;64.50;2150.40;;;;;;4841728;29;20026;-74
2021/01/16 05:48:31;;;;;;;48.60;23.52;;;64.50;2150.40;;;;;;4843526;29;20471;-74
2021/01/16 05:51:00;;;;;;;38.97;23.27;;;64.60;2124.80;;;;;;4841297;29;20042;-74
2021/01/16 05:53:26;;;;;;;43.20;23.45;;;64.50;2124.80;;;;;;4841861;29;20042;-74
2021/01/16 05:55:59;;;;;;;48.65;25.55;;;64.60;2124.80;;;;;;4841192;29;20448;-74
2021/01/16 05:58:35;;;;;;;47.15;25.60;;;64.60;2124.80;;;;;;4841566;29;20030;-74
2021/01/16 06:01:07;;;;;;;51.83;26.35;;;64.60;2124.80;;;;;;4843243;29;20030;-74
2021/01/16 06:03:38;;;;;;;42.50;24.77;;;64.60;2150.40;;;;;;4841305;29;20042;-73
2021/01/16 06:06:10;;;;;;;51.63;27.05;;;64.50;2150.40;;;;;;4843296;29;20502;-73
2021/01/16 06:08:52;;;;;;;49.13;27.67;;;64.60;2124.80;;;;;;4841883;29;20454;-74
2021/01/16 06:11:18;;;;;;;50.70;27.77;;;64.60;2124.80;;;;;;4841386;29;20568;-74
2021/01/16 06:13:47;;;;;;;52.00;27.92;;;64.60;2124.80;;;;;;4842007;29;20508;-74
2021/01/16 06:16:15;;;;;;;56.20;29.23;;;64.60;2124.80;;;;;;4842597;29;20033;-73
2021/01/16 06:18:54;;;;;;;67.10;34.40;;;64.70;2124.80;;;;;;4842814;29;20050;-74
2021/01/16 06:21:29;;;;;;;81.63;44.53;;;64.90;2150.40;;;;;;4841512;29;20037;-74
2021/01/16 06:24:00;;;;;;;85.38;46.53;;;89.80;2176.00;;;;;;4841356;29;20116;-73
2021/01/16 06:26:27;;;;;;;89.13;50.97;;;89.70;2176.00;;;;;;4842991;29;20057;-74
2021/01/16 06:28:59;;;;;;;89.10;50.83;;;89.70;2176.00;;;;;;4842387;29;20090;-74
2021/01/16 06:31:30;;;;;;;90.63;48.97;;;89.80;2176.00;;;;;;4842191;29;20105;-74
2021/01/16 06:34:05;;;;;;;82.63;46.05;;;89.70;2176.00;;;;;;4841176;29;20486;-73
2021/01/16 06:36:33;;;;;;;82.97;48.40;;;89.70;2176.00;;;;;;4842674;29;20048;-73
2021/01/16 06:39:05;;;;;;;100.65;56.10;;;89.60;2201.60;;;;;;4843508;29;20030;-74
2021/01/16 06:41:35;;;;;;;98.72;55.17;;;64.90;2201.60;;;;;;4841904;29;20064;-73
2021/01/16 06:44:01;;;;;;;102.45;56.85;;;64.90;2201.60;;;;;;4844100;29;20026;-74
2021/01/16 06:46:48;;;;;;;98.60;53.15;;;64.80;2201.60;;;;;;4845248;29;20034;-74
2021/01/16 06:49:20;;;;;;;;;;;64.70;2201.60;;;;;;4841833;29;20037;-74
2021/01/16 06:51:52;;;;;;;93.30;53.42;;;64.70;2201.60;;;;;;4841873;29;20334;-74
2021/01/16 06:54:37;;;;;;;116.47;60.25;;;64.60;2176.00;;;;;;4842348;29;20502;-74
2021/01/16 06:57:11;;;;;;;121.63;60.85;;;64.60;2201.60;;;;;;4841493;29;20025;-74
2021/01/16 06:59:44;;;;;;;119.57;64.88;;;64.50;2176.00;;;;;;4840985;29;20030;-74
2021/01/16 07:02:28;;;;;;;121.72;66.45;;;64.40;2176.00;;;;;;4840844;29;20503;-74
2021/01/16 07:04:55;;;;;;;129.38;68.47;;;64.40;2176.00;;;;;;4827136;29;20054;-73
2021/01/16 07:07:28;;;;;;;125.57;70.60;;;64.50;2176.00;;;;;;4822359;29;20094;-74
2021/01/16 07:09:59;;;;;;;120.85;66.78;;;64.60;2176.00;;;;;;4822156;29;20037;-74
2021/01/16 07:12:25;;;;;;;119.10;63.45;;;64.50;2176.00;;;;;;4821873;29;20395;-74
2021/01/16 07:14:51;;;;;;;131.50;67.90;;;64.30;2176.00;;;;;;4822471;29;20022;-75
2021/01/16 07:17:20;;;;;;;162.55;82.25;;;64.10;2150.40;;;;;;4823285;29;20648;-76
2021/01/16 07:19:46;;;;;;;113.85;61.45;;;64.00;2124.80;;;;;;4822596;29;20091;-75
2021/01/16 07:22:12;;;;;;;104.80;60.50;;;39.30;2099.20;;;;;;4838163;29;20033;-74
2021/01/16 07:24:38;;;;;;;103.00;56.80;;;39.20;2099.20;;;;;;4840487;29;20084;-76
2021/01/16 07:27:05;;;;;;;109.32;58.35;;;39.10;2073.60;;;;;;4840911;29;20376;-74
2021/01/16 07:29:38;;;;;;;131.25;69.88;;;39.10;2048.00;;;;;;4840271;29;20022;-75
2021/01/16 07:32:16;;;;;;;128.57;60.97;;;39.00;2073.60;;;;;;4841647;29;20030;-75
2021/01/16 07:34:48;;;;;;;105.10;53.97;;;39.10;2048.00;;;;;;4840896;29;20026;-75
2021/01/16 07:37:17;;;;;;;116.50;62.03;;;39.20;2073.60;;;;;;4840292;29;20474;-75
2021/01/16 07:39:44;;;;;;;113.32;62.85;;;39.20;2048.00;;;;;;4839626;29;20030;-75
2021/01/16 07:42:14;;;;;;;97.82;54.97;;;39.30;2022.40;;;;;;4839366;29;20509;-75
2021/01/16 07:44:43;;;;;;;98.35;50.80;;;39.20;2022.40;;;;;;4841065;29;20375;-75
2021/01/16 07:47:22;;;;;;;77.38;44.15;;;39.10;2022.40;;;;;;4839395;29;20028;-74
2021/01/16 07:49:53;;;;;;;81.50;45.08;;;39.00;1971.20;;;;;;4841502;29;20038;-74
2021/01/16 07:52:23;;;;;;;69.38;37.60;;;39.00;1971.20;;;;;;4839286;29;20414;-74
2021/01/16 07:55:05;;;;;;;56.35;32.88;;;39.00;1971.20;;;;;;4839569;29;20034;-74
2021/01/16 07:57:33;;;;;;;54.35;31.23;;;38.90;1971.20;;;;;;4841207;29;20029;-75
2021/01/16 08:00:09;;;;;;;61.33;31.63;;;39.00;1945.60;;;;;;4837692;29;20394;-75
2021/01/16 08:02:48;;;;;;;46.75;27.20;;;39.00;1920.00;;;;;;4839144;29;20081;-74
2021/01/16 08:05:25;;;;;;;40.30;21.25;;;38.90;1868.80;;;;;;4840303;29;20761;-73
2021/01/16 08:08:23;;;;;;;53.45;28.52;;;38.80;1894.40;;;;;;4840644;29;20026;-74
2021/01/16 08:10:54;;;;;;;58.95;32.58;;;38.70;1920.00;;;;;;4751487;30;20087;-75
2021/01/16 08:13:22;;;;;;;51.22;31.88;;;38.50;1945.60;;;;;;4766761;29;20101;-74
2021/01/16 08:15:50;;;;;;;55.67;30.80;;;38.50;1945.60;;;;;;4766480;30;21004;-74
2021/01/16 08:18:19;;;;;;;69.10;36.25;;;38.50;1945.60;;;;;;4766948;30;20032;-75
2021/01/16 08:20:47;;;;;;;75.78;39.05;;;38.40;1945.60;;;;;;4751459;30;20581;-75
2021/01/16 08:23:24;;;;;;;66.18;37.80;;;38.50;1971.20;;;;;;4750807;30;20088;-76
2021/01/16 08:25:50;;;;;;;70.18;38.17;;;38.60;2022.40;;;;;;4743379;30;20078;-75
2021/01/16 08:28:24;;;;;;;76.35;38.53;;;38.50;2022.40;;;;;;4738452;30;20441;-75
2021/01/16 08:30:50;;;;;;;63.50;31.67;;;38.40;1920.00;;;;;;4751808;30;20036;-74
2021/01/16 08:33:16;;;;;;;55.50;29.55;;;13.70;1894.40;;;;;;4751311;30;20197;-74
2021/01/16 08:35:49;;;;;;;65.88;37.25;;;13.70;1945.60;;;;;;4750496;30;20845;-74
2021/01/16 08:38:17;;;;;;;62.70;36.20;;;13.60;1971.20;;;;;;4766461;30;20032;-75
2021/01/16 08:40:50;;;;;;;64.00;35.58;;;13.60;2022.40;;;;;;4766101;30;20075;-74
2021/01/16 08:43:43;;;;;;;67.60;38.17;;;13.60;2022.40;;;;;;4751412;30;20477;-74
2021/01/16 08:46:08;;;;;;;69.88;39.83;;;13.40;1996.80;;;;;;4787420;29;20038;-74
2021/01/16 08:48:34;;;;;;;69.30;38.90;;;13.40;1996.80;;;;;;4840290;29;20493;-75
2021/01/16 08:51:00;;;;;;;71.20;38.70;;;13.30;1996.80;;;;;;4839475;29;20023;-74
2021/01/16 08:53:28;;;;;;;96.43;49.75;;;13.10;1996.80;;;;;;4840168;29;20048;-73
2021/01/16 08:55:53;;;;;;;68.07;39.65;;;13.30;1996.80;;;;;;4839081;29;20080;-74
2021/01/16 08:58:27;;;;;;;96.70;50.22;;;13.10;1971.20;;;;;;4838443;29;20474;-74
2021/01/16 09:00:53;;;;;;;89.38;52.42;;;13.10;1996.80;;;;;;4839344;29;20048;-73
2021/01/16 09:03:20;;;;;;;80.30;45.70;;;12.90;1971.20;;;;;;4839815;29;20046;-74
2021/01/16 09:05:57;;;;;;;80.80;44.15;;;0.10;1971.20;;;;;;4840174;29;20046;-74
2021/01/16 09:08:25;;;;;;;67.63;41.50;;;0.30;1945.60;;;;;;4840047;29;20025;-74
2021/01/16 09:10:53;;;;;;;48.85;29.33;;;0.90;1868.80;;;;;;4840538;29;20062;-74
2021/01/16 09:13:30;;;;;;;54.17;32.58;;;25.70;1817.60;;;;;;4843368;29;20120;-75
2021/01/16 09:15:57;;;;;;;51.33;30.58;;;26.00;1766.40;;;;;;4842906;29;20521;-76
2021/01/16 09:18:23;;;;;;;43.60;28.33;;;26.00;1715.20;;;;;;4842382;29;20482;-75
2021/01/16 09:20:52;;;;;;;42.40;24.98;;;26.00;1689.60;;;;;;4842639;29;20410;-76
2021/01/16 09:23:26;;;;;;;35.03;20.42;;;26.20;1664.00;;;;;;4843493;29;20037;-75
2021/01/16 09:25:59;;;;;;;36.13;20.98;;;26.30;1587.20;;;;;;4841875;29;20049;-74
2021/01/16 09:28:43;;;;;;;37.55;21.50;;;51.20;1612.80;;;;;;4842954;29;20025;-74
2021/01/16 09:31:29;;;;;;;39.80;23.75;;;51.30;1612.80;;;;;;4841838;29;20045;-74
2021/01/16 09:34:12;;;;;;;51.47;30.00;;;51.90;1561.60;;;;;;4843799;29;20439;-75
2021/01/16 09:36:46;;;;;;;45.50;24.70;;;51.90;1561.60;;;;;;4830064;29;20030;-75
2021/01/16 09:39:27;;;;;;;40.53;25.30;;;51.90;1561.60;;;;;;4842458;29;20034;-75
2021/01/16 09:41:58;;;;;;;44.15;28.00;;;77.00;1510.40;;;;;;4841438;29;20052;-76
2021/01/16 09:44:47;;;;;;;51.72;32.13;;;76.80;1536.00;;;;;;4844466;29;20140;-75
2021/01/16 09:47:28;;;;;;;39.95;25.50;;;77.10;1536.00;;;;;;4833423;29;20030;-75
2021/01/16 09:50:00;;;;;;;41.58;25.98;;;77.20;1484.80;;;;;;4843294;29;20082;-75
2021/01/16 09:52:26;;;;;;;38.70;24.55;;;77.60;1459.20;;;;;;4843816;29;20026;-75
2021/01/16 09:54:53;;;;;;;55.15;33.45;;;102.40;1459.20;;;;;;4841964;29;20034;-76
2021/01/16 09:57:37;;;;;;;83.55;43.53;;;77.40;1510.40;;;;;;4842748;29;20506;-75
2021/01/16 10:00:14;;;;;;;63.17;36.42;;;51.60;1638.40;;;;;;4842476;29;20038;-76
2021/01/16 10:02:41;;;;;;;68.35;37.55;;;26.40;1715.20;;;;;;4840528;29;20049;-76
2021/01/16 10:05:38;;;;;;;50.70;30.05;;;51.50;1689.60;;;;;;4830847;29;20108;-76
2021/01/16 10:08:05;;;;;;;51.15;28.90;;;51.90;1638.40;;;;;;4825986;29;20030;-76
2021/01/16 10:10:48;;;;;;;36.33;23.05;;;77.50;1561.60;;;;;;4841307;29;20042;-76
2021/01/16 10:13:35;;;;;;;38.10;24.05;;;77.70;1484.80;;;;;;4843440;29;20066;-76
2021/01/16 10:16:12;;;;;;;45.75;26.67;;;102.70;1433.60;;;;;;4843331;29;20041;-74
2021/01/16 10:18:40;;;;;;;37.65;22.98;;;77.30;1484.80;;;;;;4842366;29;20030;-75
2021/01/16 10:21:12;;;;;;;45.72;28.48;;;77.50;1484.80;;;;;;4833635;29;20027;-74
2021/01/16 10:23:40;;;;;;;32.42;20.50;;;76.80;1536.00;;;;;;4824442;29;20410;-74
2021/01/16 10:26:10;;;;;;;49.65;28.30;;;51.80;1536.00;;;;;;4835772;29;20034;-75
2021/01/16 10:29:00;;;;;;;40.83;23.00;;;26.50;1587.20;;;;;;4831417;29;20029;-76
2021/01/16 10:31:27;;;;;;;50.05;29.48;;;51.50;1561.60;;;;;;4829841;29;20116;-75
2021/01/16 10:34:05;;;;;;;45.85;26.80;;;77.30;1484.80;;;;;;4831779;29;20041;-74
2021/01/16 10:36:32;;;;;;;33.70;21.10;;;77.60;1433.60;;;;;;4837133;29;20030;-76
2021/01/16 10:39:07;;;;;;;34.72;23.00;;;102.40;1382.40;;;;;;4824024;29;20057;-75
2021/01/16 10:41:34;;;;;;;33.50;21.95;;;77.20;1433.60;;;;;;4824122;29;20086;-75
2021/01/16 10:44:03;;;;;;;32.95;21.10;;;77.30;1433.60;;;;;;4823811;29;20034;-75
2021/01/16 10:46:46;;;;;;;31.33;20.50;;;102.50;1408.00;;;;;;4832672;29;20025;-75
2021/01/16 10:49:24;;;;;;;33.85;19.65;;;77.30;1433.60;;;;;;4840560;29;20399;-75
2021/01/16 10:51:59;;;;;;;32.20;21.27;;;77.50;1433.60;;;;;;4839286;29;20109;-74
2021/01/16 10:54:25;;;;;;;41.03;22.75;;;77.70;1408.00;;;;;;4832268;29;20025;-75
2021/01/16 10:57:04;;;;;;;45.50;22.67;;;77.50;1433.60;;;;;;4842349;29;20390;-75
2021/01/16 10:59:35;;;;;;;40.72;23.27;;;51.90;1459.20;;;;;;4841297;29;20030;-75
2021/01/16 11:02:15;;;;;;;32.58;19.27;;;51.90;1510.40;;;;;;4842188;29;20109;-75
2021/01/16 11:04:42;;;;;;;38.05;21.10;;;52.00;1510.40;;;;;;4837671;29;20049;-74
2021/01/16 11:07:27;;;;;;;34.47;22.42;;;51.50;1587.20;;;;;;4837613;29;20034;-74
2021/01/16 11:10:07;;;;;;;32.53;20.75;;;51.20;1638.40;;;;;;4841820;29;20030;-75
2021/01/16 11:12:33;;;;;;;32.78;19.05;;;51.40;1561.60;;;;;;4841972;29;20128;-74
2021/01/16 11:15:00;;;;;;;31.75;20.80;;;51.60;1536.00;;;;;;4840175;29;20113;-74
2021/01/16 11:17:46;;;;;;;38.00;23.10;;;51.40;1561.60;;;;;;4842087;29;20034;-75
2021/01/16 11:20:35;;;;;;;38.88;22.45;;;26.50;1612.80;;;;;;4839882;29;20034;-74
2021/01/16 11:23:04;;;;;;;36.97;20.52;;;26.30;1612.80;;;;;;4839977;29;20505;-74
2021/01/16 11:25:45;;;;;;;39.25;19.70;;;26.30;1612.80;;;;;;4841484;29;20026;-74
2021/01/16 11:28:14;;;;;;;36.30;20.27;;;26.10;1612.80;;;;;;4840166;29;20028;-75
2021/01/16 11:30:46;;;;;;;32.03;20.23;;;26.00;1638.40;;;;;;4839734;29;20041;-75
2021/01/16 11:33:32;;;;;;;44.88;27.48;;;26.10;1612.80;;;;;;4838744;29;20397;-75
2021/01/16 11:36:10;;;;;;;42.97;24.23;;;26.00;1638.40;;;;;;4840995;29;20057;-74
2021/01/16 11:38:42;;;;;;;39.95;24.58;;;26.10;1638.40;;;;;;4831624;29;20045;-76
2021/01/16 11:41:09;;;;;;;38.13;21.27;;;26.20;1612.80;;;;;;4837334;29;20034;-76
2021/01/16 11:43:35;;;;;;;43.90;23.58;;;26.30;1587.20;;;;;;4833403;29;20038;-76
2021/01/16 11:46:03;;;;;;;38.40;22.95;;;51.20;1612.80;;;;;;4841939;29;20030;-78
2021/01/16 11:48:32;;;;;;;31.08;20.30;;;51.30;1612.80;;;;;;4840978;29;20041;-74
2021/01/16 11:50:57;;;;;;;44.47;26.45;;;26.50;1587.20;;;;;;4843656;29;20026;-75
2021/01/16 11:53:24;;;;;;;36.28;23.08;;;26.20;1664.00;;;;;;4843317;29;20509;-75
2021/01/16 11:55:50;;;;;;;46.63;29.00;;;25.90;1689.60;;;;;;4841176;29;20021;-75
2021/01/16 11:58:16;;;;;;;32.22;21.58;;;25.80;1689.60;;;;;;4839534;29;20535;-74
2021/01/16 12:00:43;;;;;;;33.92;21.80;;;25.70;1689.60;;;;;;4840317;29;20065;-76
2021/01/16 12:03:10;;;;;;;34.67;23.45;;;25.80;1689.60;;;;;;4840607;29;20038;-74
2021/01/16 12:05:36;;;;;;;34.90;22.13;;;26.00;1664.00;;;;;;4839145;29;20637;-74
2021/01/16 12:08:03;;;;;;;28.92;18.90;;;26.30;1638.40;;;;;;4838903;29;20046;-74
2021/01/16 12:10:29;;;;;;;51.67;37.42;;;26.50;1612.80;;;;;;4840474;29;20033;-75
2021/01/16 12:12:56;;;;;;;28.67;19.35;;;51.20;1664.00;;;;;;4839485;29;20444;-75
2021/01/16 12:15:24;;;;;;;38.70;22.63;;;26.40;1612.80;;;;;;4840334;29;20441;-76
2021/01/16 12:17:52;;;;;;;37.38;23.40;;;26.40;1638.40;;;;;;4840099;29;20032;-74
2021/01/16 12:20:21;;;;;;;38.30;24.35;;;51.20;1612.80;;;;;;4839452;29;20068;-75
2021/01/16 12:22:50;;;;;;;31.30;19.92;;;51.20;1612.80;;;;;;4820825;29;20498;-75
2021/01/16 12:25:17;;;;;;;39.75;20.98;;;51.20;1587.20;;;;;;4839765;29;20049;-74